createdAt,value
2022-10-04T00:01:47.019Z,12.20
2022-10-04T00:04:28.353Z,12.20
2022-10-04T00:07:00.964Z,12.20
2022-10-04T00:09:32.339Z,12.20
2022-10-04T00:12:00.223Z,12.20
2022-10-04T00:14:35.516Z,12.20
2022-10-04T00:17:09.222Z,12.10
2022-10-04T00:19:42.479Z,12.10
2022-10-04T00:22:19.807Z,12.00
2022-10-04T00:25:20.952Z,12.00
2022-10-04T00:28:06.733Z,12.00
2022-10-04T00:30:38.286Z,12.00
2022-10-04T00:33:05.092Z,11.90
2022-10-04T00:35:31.967Z,11.90
2022-10-04T00:38:13.495Z,11.90
2022-10-04T00:40:49.825Z,11.80
2022-10-04T00:43:19.869Z,11.80
2022-10-04T00:45:54.126Z,11.70
2022-10-04T00:48:31.586Z,11.70
2022-10-04T00:51:02.283Z,11.60
2022-10-04T00:53:47.568Z,11.60
2022-10-04T00:56:18.973Z,11.60
2022-10-04T00:58:50.453Z,11.60
2022-10-04T01:01:20.177Z,11.60
2022-10-04T01:03:48.130Z,11.50
2022-10-04T01:06:15.540Z,11.50
2022-10-04T01:08:49.663Z,11.50
2022-10-04T01:11:22.404Z,11.50
2022-10-04T01:13:57.768Z,11.50
2022-10-04T01:16:26.289Z,11.50
2022-10-04T01:18:53.355Z,11.40
2022-10-04T01:21:20.440Z,11.40
2022-10-04T01:23:48.671Z,11.40
2022-10-04T01:26:31.941Z,11.40
2022-10-04T01:29:05.366Z,11.40
2022-10-04T01:31:33.050Z,11.30
2022-10-04T01:34:00.663Z,11.30
2022-10-04T01:36:28.453Z,11.20
2022-10-04T01:38:55.869Z,11.10
2022-10-04T01:41:30.634Z,11.10
2022-10-04T01:44:01.053Z,11.10
2022-10-04T01:46:31.772Z,11.10
2022-10-04T01:49:01.163Z,11.10
2022-10-04T01:51:31.230Z,11.10
2022-10-04T01:54:07.089Z,11.10
2022-10-04T01:56:38.249Z,11.10
2022-10-04T01:59:06.360Z,11.10
2022-10-04T02:01:38.461Z,11.10
2022-10-04T02:04:09.163Z,11.10
2022-10-04T02:06:38.341Z,11.00
2022-10-04T02:09:10.898Z,11.10
2022-10-04T02:11:39.656Z,11.00
2022-10-04T02:14:12.907Z,11.00
2022-10-04T02:16:40.006Z,11.00
2022-10-04T02:19:09.139Z,11.00
2022-10-04T02:21:36.658Z,11.00
2022-10-04T02:24:04.708Z,11.00
2022-10-04T02:26:31.607Z,11.00
2022-10-04T02:28:58.629Z,11.00
2022-10-04T02:31:45.188Z,11.00
2022-10-04T02:34:12.679Z,10.90
2022-10-04T02:36:39.805Z,10.90
2022-10-04T02:39:10.510Z,10.90
2022-10-04T02:41:44.699Z,10.90
2022-10-04T02:44:20.731Z,10.90
2022-10-04T02:46:57.385Z,10.80
2022-10-04T02:49:24.493Z,10.70
2022-10-04T02:51:58.813Z,10.80
2022-10-04T02:54:32.341Z,10.70
2022-10-04T02:56:59.786Z,10.70
2022-10-04T02:59:26.726Z,10.70
2022-10-04T03:01:53.917Z,10.70
2022-10-04T03:04:23.549Z,10.60
2022-10-04T03:06:50.470Z,10.60
2022-10-04T03:09:17.921Z,10.60
2022-10-04T03:11:46.707Z,10.60
2022-10-04T03:14:15.377Z,10.60
2022-10-04T03:16:45.747Z,10.60
2022-10-04T03:19:14.608Z,10.50
2022-10-04T03:21:42.908Z,10.60
2022-10-04T03:24:11.519Z,10.60
2022-10-04T03:26:38.504Z,10.60
2022-10-04T03:29:09.741Z,10.50
2022-10-04T03:31:42.524Z,10.60
2022-10-04T03:34:24.668Z,10.50
2022-10-04T03:36:53.438Z,10.60
2022-10-04T03:39:34.010Z,10.60
2022-10-04T03:42:20.901Z,10.50
2022-10-04T03:44:49.076Z,10.50
2022-10-04T03:47:26.772Z,10.50
2022-10-04T03:49:55.570Z,10.50
2022-10-04T03:52:24.975Z,10.50
2022-10-04T03:54:52.844Z,10.40
2022-10-04T03:57:19.761Z,10.40
2022-10-04T03:59:47.121Z,10.40
2022-10-04T04:02:19.952Z,10.40
2022-10-04T04:05:16.349Z,10.30
2022-10-04T04:07:48.011Z,10.30
2022-10-04T04:10:28.397Z,10.30
2022-10-04T04:12:57.359Z,10.30
2022-10-04T04:15:27.944Z,10.30
2022-10-04T04:17:55.503Z,10.30
2022-10-04T04:20:25.484Z,10.30
2022-10-04T04:23:04.280Z,10.30
2022-10-04T04:25:34.862Z,10.30
2022-10-04T04:28:05.587Z,10.30
2022-10-04T04:30:34.361Z,10.30
2022-10-04T04:33:06.200Z,10.30
2022-10-04T04:35:33.347Z,10.30
2022-10-04T04:38:04.549Z,10.30
2022-10-04T04:40:32.050Z,10.30
2022-10-04T04:43:01.070Z,10.30
2022-10-04T04:45:32.016Z,10.30
2022-10-04T04:48:00.144Z,10.30
2022-10-04T04:50:30.566Z,10.30
2022-10-04T04:53:03.883Z,10.20
2022-10-04T04:55:50.072Z,10.20
2022-10-04T04:58:30.016Z,10.20
2022-10-04T05:01:02.041Z,10.30
2022-10-04T05:03:31.394Z,10.30
2022-10-04T05:06:01.077Z,10.30
2022-10-04T05:08:29.562Z,10.30
2022-10-04T05:11:10.026Z,10.30
2022-10-04T05:13:45.363Z,10.40
2022-10-04T05:16:14.549Z,10.40
2022-10-04T05:18:41.598Z,10.50
2022-10-04T05:21:31.524Z,10.50
2022-10-04T05:23:59.888Z,10.50
2022-10-04T05:26:30.599Z,10.40
2022-10-04T05:29:02.258Z,10.40
2022-10-04T05:31:35.828Z,10.40
2022-10-04T05:34:06.988Z,10.40
2022-10-04T05:36:52.698Z,10.40
2022-10-04T05:39:38.391Z,10.40
2022-10-04T05:42:11.410Z,10.30
2022-10-04T05:44:54.962Z,10.30
2022-10-04T05:47:26.754Z,10.30
2022-10-04T05:49:56.159Z,10.30
2022-10-04T05:52:26.055Z,10.30
2022-10-04T05:55:11.957Z,10.20
2022-10-04T05:57:50.954Z,10.20
2022-10-04T06:00:20.857Z,10.20
2022-10-04T06:02:55.000Z,10.20
2022-10-04T06:05:29.266Z,10.20
2022-10-04T06:08:05.581Z,10.20
2022-10-04T06:10:38.666Z,10.20
2022-10-04T06:13:15.140Z,10.20
2022-10-04T06:15:44.864Z,10.20
2022-10-04T06:18:27.673Z,10.10
2022-10-04T06:21:08.219Z,10.10
2022-10-04T06:23:37.361Z,10.10
2022-10-04T06:26:07.755Z,10.20
2022-10-04T06:28:39.508Z,10.20
2022-10-04T06:31:26.720Z,10.20
2022-10-04T06:33:59.428Z,10.30
2022-10-04T06:36:35.462Z,10.40
2022-10-04T06:39:11.390Z,10.40
2022-10-04T06:41:38.502Z,10.40
2022-10-04T06:44:36.968Z,10.40
2022-10-04T06:47:12.995Z,10.40
2022-10-04T06:49:48.084Z,10.50
2022-10-04T06:52:17.464Z,10.50
2022-10-04T06:54:47.665Z,10.40
2022-10-04T06:57:14.555Z,10.50
2022-10-04T06:59:41.389Z,10.50
2022-10-04T07:02:20.785Z,10.50
2022-10-04T07:05:16.984Z,10.60
2022-10-04T07:07:48.327Z,10.70
2022-10-04T07:10:18.429Z,10.80
2022-10-04T07:12:49.217Z,10.80
2022-10-04T07:15:19.680Z,10.90
2022-10-04T07:17:48.121Z,11.00
2022-10-04T07:20:30.389Z,11.10
2022-10-04T07:23:06.694Z,11.20
2022-10-04T07:25:47.790Z,11.30
2022-10-04T07:28:38.767Z,11.30
2022-10-04T07:31:13.409Z,11.40
2022-10-04T07:33:49.730Z,11.50
2022-10-04T07:36:22.025Z,11.60
2022-10-04T07:38:52.048Z,11.70
2022-10-04T07:41:18.884Z,11.80
2022-10-04T07:43:50.166Z,11.90
2022-10-04T07:46:24.662Z,12.00
2022-10-04T07:48:51.700Z,12.10
2022-10-04T07:51:33.793Z,12.20
2022-10-04T07:54:13.023Z,12.30
2022-10-04T07:56:55.447Z,12.40
2022-10-04T07:59:22.586Z,12.50
2022-10-04T08:02:07.973Z,12.60
2022-10-04T08:05:10.351Z,12.70
2022-10-04T08:07:43.430Z,12.80
2022-10-04T08:10:28.885Z,12.90
2022-10-04T08:13:12.643Z,13.00
2022-10-04T08:15:40.692Z,13.10
2022-10-04T08:18:16.404Z,13.20
2022-10-04T08:20:55.235Z,13.30
2022-10-04T08:23:24.973Z,13.30
2022-10-04T08:26:14.957Z,13.40
2022-10-04T08:29:19.099Z,13.50
2022-10-04T08:31:52.692Z,13.60
2022-10-04T08:34:32.097Z,13.70
2022-10-04T08:37:04.556Z,13.80
2022-10-04T08:39:51.621Z,13.90
2022-10-04T08:42:21.506Z,13.90
2022-10-04T08:45:03.575Z,14.00
2022-10-04T08:48:01.843Z,14.10
2022-10-04T08:50:44.427Z,14.20
2022-10-04T08:53:14.145Z,14.30
2022-10-04T08:56:09.444Z,14.40
2022-10-04T08:58:39.424Z,14.50
2022-10-04T09:01:29.500Z,14.60
2022-10-04T09:04:15.169Z,14.70
2022-10-04T09:06:53.760Z,14.80
2022-10-04T09:09:36.079Z,14.90
2022-10-04T09:12:03.823Z,15.10
2022-10-04T09:14:46.563Z,15.20
2022-10-04T09:17:28.121Z,15.40
2022-10-04T09:20:37.165Z,15.50
2022-10-04T09:23:12.594Z,15.60
2022-10-04T09:25:48.584Z,15.90
2022-10-04T09:28:24.707Z,15.90
2022-10-04T09:30:54.710Z,16.10
2022-10-04T09:33:26.077Z,16.20
2022-10-04T09:36:31.516Z,16.20
2022-10-04T09:39:25.566Z,16.30
2022-10-04T09:41:52.585Z,16.40
2022-10-04T09:44:29.268Z,16.50
2022-10-04T09:47:04.772Z,16.60
2022-10-04T09:49:37.031Z,16.70
2022-10-04T09:52:09.939Z,16.90
2022-10-04T09:54:49.789Z,16.90
2022-10-04T09:57:19.391Z,17.00
2022-10-04T09:59:53.365Z,17.10
2022-10-04T10:02:32.423Z,17.10
2022-10-04T10:05:17.702Z,17.30
2022-10-04T10:07:44.639Z,17.40
2022-10-04T10:11:02.436Z,17.50
2022-10-04T10:13:41.177Z,17.60
2022-10-04T10:16:20.299Z,17.70
2022-10-04T10:18:59.484Z,17.80
2022-10-04T10:21:45.143Z,18.00
2022-10-04T10:24:37.706Z,18.00
2022-10-04T10:27:19.883Z,18.00
2022-10-04T10:30:06.405Z,18.10
2022-10-04T10:32:44.956Z,18.30
2022-10-04T10:35:14.616Z,18.40
2022-10-04T10:37:42.129Z,18.40
2022-10-04T10:40:08.943Z,18.50
2022-10-04T10:42:42.002Z,18.50
2022-10-04T10:45:21.333Z,18.60
2022-10-04T10:48:14.409Z,18.70
2022-10-04T10:51:08.486Z,18.80
2022-10-04T10:53:39.698Z,18.90
2022-10-04T10:56:09.512Z,18.90
2022-10-04T10:59:05.946Z,18.90
2022-10-04T11:01:53.792Z,18.90
2022-10-04T11:04:39.278Z,19.10
2022-10-04T11:07:30.008Z,19.20
2022-10-04T11:09:59.544Z,19.30
2022-10-04T11:12:42.916Z,19.30
2022-10-04T11:15:28.519Z,19.20
2022-10-04T11:17:56.132Z,19.30
2022-10-04T11:20:26.025Z,19.40
2022-10-04T11:23:11.325Z,19.50
2022-10-04T11:25:49.038Z,19.50
2022-10-04T11:28:19.821Z,19.50
2022-10-04T11:30:52.450Z,19.60
2022-10-04T11:33:38.012Z,19.80
2022-10-04T11:36:25.470Z,19.90
2022-10-04T11:38:58.031Z,20.00
2022-10-04T11:41:27.913Z,20.20
2022-10-04T11:44:16.000Z,20.20
2022-10-04T11:46:49.195Z,20.30
2022-10-04T11:49:34.134Z,20.40
2022-10-04T11:52:19.935Z,20.50
2022-10-04T11:55:13.900Z,20.70
2022-10-04T11:57:48.446Z,20.70
2022-10-04T12:00:25.709Z,20.90
2022-10-04T12:03:08.156Z,21.00
2022-10-04T12:05:49.110Z,21.00
2022-10-04T12:08:15.919Z,21.00
2022-10-04T12:10:43.820Z,21.10
2022-10-04T12:13:26.938Z,21.20
2022-10-04T12:16:05.418Z,21.20
2022-10-04T12:18:51.243Z,21.30
2022-10-04T12:21:29.691Z,21.40
2022-10-04T12:24:04.599Z,21.50
2022-10-04T12:26:43.102Z,21.60
2022-10-04T12:29:28.980Z,21.60
2022-10-04T12:32:04.258Z,21.80
2022-10-04T12:34:38.654Z,21.80
2022-10-04T12:37:26.159Z,21.90
2022-10-04T12:40:01.823Z,21.80
2022-10-04T12:42:47.425Z,21.80
2022-10-04T12:45:33.219Z,21.90
2022-10-04T12:48:08.523Z,22.00
2022-10-04T12:50:47.562Z,22.00
2022-10-04T12:53:22.028Z,21.90
2022-10-04T12:55:53.068Z,22.00
2022-10-04T12:58:28.205Z,21.90
2022-10-04T13:01:02.073Z,22.00
2022-10-04T13:03:47.932Z,22.10
2022-10-04T13:06:23.935Z,22.10
2022-10-04T13:09:00.655Z,22.20
2022-10-04T13:11:27.466Z,22.40
2022-10-04T13:14:07.054Z,22.50
2022-10-04T13:19:28.982Z,22.50
2022-10-04T13:22:04.543Z,22.60
2022-10-04T13:24:56.186Z,22.80
2022-10-04T13:27:27.887Z,22.80
2022-10-04T13:30:02.583Z,23.00
2022-10-04T13:32:33.270Z,23.00
2022-10-04T13:35:03.212Z,23.10
2022-10-04T13:37:48.681Z,23.30
2022-10-04T13:40:29.034Z,23.40
2022-10-04T13:42:59.116Z,23.50
2022-10-04T13:45:45.574Z,23.70
2022-10-04T13:48:18.185Z,23.90
2022-10-04T13:50:57.061Z,24.00
2022-10-04T13:54:01.488Z,23.90
2022-10-04T13:56:37.196Z,24.00
2022-10-04T13:59:15.964Z,24.00
2022-10-04T14:01:45.844Z,24.10
2022-10-04T14:04:31.733Z,24.00
2022-10-04T14:07:37.488Z,24.00
2022-10-04T14:10:30.379Z,24.10
2022-10-04T14:13:16.050Z,24.10
2022-10-04T14:15:42.926Z,24.20
2022-10-04T14:18:12.782Z,24.30
2022-10-04T14:21:00.038Z,24.30
2022-10-04T14:23:38.415Z,24.40
2022-10-04T14:26:17.948Z,24.50
2022-10-04T14:28:44.796Z,24.50
2022-10-04T14:31:36.141Z,24.50
2022-10-04T14:34:23.889Z,24.60
2022-10-04T14:36:51.237Z,24.60
2022-10-04T14:39:26.135Z,24.60
2022-10-04T14:41:59.350Z,24.50
2022-10-04T14:44:48.494Z,24.50
2022-10-04T14:47:24.424Z,24.60
2022-10-04T14:50:03.544Z,24.60
2022-10-04T14:52:32.906Z,24.70
2022-10-04T14:55:10.557Z,24.60
2022-10-04T14:57:38.235Z,24.70
2022-10-04T15:00:15.720Z,24.70
2022-10-04T15:03:05.023Z,24.70
2022-10-04T15:05:39.847Z,24.70
2022-10-04T15:08:12.931Z,24.60
2022-10-04T15:10:48.390Z,24.50
2022-10-04T15:13:30.345Z,24.40
2022-10-04T15:16:10.076Z,24.30
2022-10-04T15:18:57.326Z,24.20
2022-10-04T15:21:36.650Z,24.00
2022-10-04T15:24:15.904Z,23.90
2022-10-04T15:26:50.432Z,23.70
2022-10-04T15:29:28.220Z,23.50
2022-10-04T15:31:55.157Z,23.40
2022-10-04T15:34:25.032Z,23.30
2022-10-04T15:37:10.455Z,23.20
2022-10-04T15:39:49.285Z,23.00
2022-10-04T15:42:24.962Z,22.90
2022-10-04T15:44:54.741Z,22.80
2022-10-04T15:47:34.630Z,22.70
2022-10-04T15:50:01.499Z,22.50
2022-10-04T15:52:44.424Z,22.40
2022-10-04T15:55:17.317Z,22.20
2022-10-04T15:57:56.539Z,22.20
2022-10-04T16:00:27.708Z,22.10
2022-10-04T16:03:11.213Z,22.00
2022-10-04T16:05:42.307Z,21.80
2022-10-04T16:08:09.406Z,21.70
2022-10-04T16:10:55.296Z,21.70
2022-10-04T16:13:41.688Z,21.60
2022-10-04T16:16:26.204Z,21.50
2022-10-04T16:18:53.205Z,21.50
2022-10-04T16:21:41.363Z,21.40
2022-10-04T16:24:20.583Z,21.30
2022-10-04T16:26:47.887Z,21.30
2022-10-04T16:29:15.177Z,21.20
2022-10-04T16:32:05.363Z,21.10
2022-10-04T16:34:49.234Z,21.00
2022-10-04T16:37:18.815Z,20.90
2022-10-04T16:40:00.945Z,20.80
2022-10-04T16:42:46.840Z,20.70
2022-10-04T16:45:32.223Z,20.70
2022-10-04T16:48:12.435Z,20.60
2022-10-04T16:51:00.708Z,20.50
2022-10-04T16:53:33.792Z,20.40
2022-10-04T16:56:12.210Z,20.30
2022-10-04T16:58:43.960Z,20.10
2022-10-04T17:01:23.334Z,20.10
2022-10-04T17:03:50.273Z,19.90
2022-10-04T17:06:25.865Z,19.80
2022-10-04T17:09:02.064Z,19.70
2022-10-04T17:11:39.558Z,19.60
2022-10-04T17:14:25.229Z,19.50
2022-10-04T17:16:58.799Z,19.30
2022-10-04T17:19:34.347Z,19.20
2022-10-04T17:22:16.344Z,19.10
2022-10-04T17:24:53.635Z,18.90
2022-10-04T17:27:45.175Z,18.80
2022-10-04T17:30:19.618Z,18.70
2022-10-04T17:33:06.559Z,18.60
2022-10-04T17:35:57.322Z,18.50
2022-10-04T17:38:56.701Z,18.40
2022-10-04T17:47:13.463Z,18.10
2022-10-04T17:50:05.211Z,18.00
2022-10-04T17:52:53.956Z,17.90
2022-10-04T17:55:44.219Z,17.90
2022-10-04T17:58:24.286Z,17.80
2022-10-04T18:00:57.358Z,17.80
2022-10-04T18:03:33.304Z,17.80
2022-10-04T18:06:18.992Z,17.70
2022-10-04T18:08:46.845Z,17.70
2022-10-04T18:11:20.794Z,17.70
2022-10-04T18:13:56.208Z,17.60
2022-10-04T18:16:23.247Z,17.60
2022-10-04T18:18:51.154Z,17.50
2022-10-04T18:21:19.533Z,17.50
2022-10-04T18:23:54.328Z,17.40
2022-10-04T18:26:21.803Z,17.40
2022-10-04T18:28:49.879Z,17.30
2022-10-04T18:31:26.919Z,17.30
2022-10-04T18:33:54.289Z,17.20
2022-10-04T18:36:24.729Z,17.20
2022-10-04T18:39:10.701Z,17.10
2022-10-04T18:41:51.500Z,17.10
2022-10-04T18:44:23.979Z,17.20
2022-10-04T18:46:55.733Z,17.10
2022-10-04T18:49:42.672Z,17.10
2022-10-04T18:52:09.488Z,17.10
2022-10-04T18:54:36.314Z,17.10
2022-10-04T18:57:16.412Z,17.10
2022-10-04T19:00:18.943Z,17.10
2022-10-04T19:02:57.784Z,17.20
2022-10-04T19:05:34.521Z,17.20
2022-10-04T19:08:10.282Z,17.20
2022-10-04T19:10:37.126Z,17.20
2022-10-04T19:13:42.390Z,17.20
2022-10-04T19:16:09.409Z,17.20
2022-10-04T19:18:42.401Z,17.20
2022-10-04T19:21:21.728Z,17.20
2022-10-04T19:23:48.630Z,17.20
2022-10-04T19:26:47.920Z,17.20
2022-10-04T19:29:34.279Z,17.20
2022-10-04T19:32:13.989Z,17.20
2022-10-04T19:34:40.863Z,17.20
2022-10-04T19:37:28.110Z,17.20
2022-10-04T19:39:57.644Z,17.20
2022-10-04T19:42:44.093Z,17.20
2022-10-04T19:45:33.544Z,17.10
2022-10-04T19:48:01.807Z,17.10
2022-10-04T19:50:31.774Z,17.10
2022-10-04T19:53:03.814Z,17.10
2022-10-04T19:55:33.680Z,17.10
2022-10-04T19:58:06.537Z,17.10
2022-10-04T20:00:36.027Z,17.10
2022-10-04T20:03:09.553Z,17.10
2022-10-04T20:05:41.782Z,17.00
2022-10-04T20:08:11.794Z,17.00
2022-10-04T20:10:39.153Z,17.00
2022-10-04T20:13:25.302Z,17.00
2022-10-04T20:15:56.464Z,17.00
2022-10-04T20:18:32.559Z,17.00
2022-10-04T20:21:00.255Z,17.10
2022-10-04T20:23:37.090Z,17.10
2022-10-04T20:26:06.422Z,17.00
2022-10-04T20:28:34.087Z,17.10
2022-10-04T20:31:02.450Z,17.00
2022-10-04T20:33:35.315Z,17.10
2022-10-04T20:36:09.493Z,17.10
2022-10-04T20:38:54.800Z,17.00
2022-10-04T20:41:49.840Z,17.00
2022-10-04T20:44:45.890Z,17.00
2022-10-04T20:47:35.818Z,17.00
2022-10-04T20:50:03.406Z,17.00
2022-10-04T20:52:34.765Z,17.00
2022-10-04T20:55:01.965Z,17.00
2022-10-04T20:57:32.183Z,17.00
2022-10-04T20:59:59.648Z,17.00
2022-10-04T21:02:28.702Z,17.10
2022-10-04T21:05:11.667Z,17.10
2022-10-04T21:07:38.499Z,17.10
2022-10-04T21:10:15.933Z,17.10
2022-10-04T21:12:42.758Z,17.10
2022-10-04T21:15:19.149Z,17.10
2022-10-04T21:18:07.343Z,17.10
2022-10-04T21:20:43.107Z,17.10
2022-10-04T21:23:17.147Z,17.10
2022-10-04T21:25:44.261Z,17.10
2022-10-04T21:28:29.954Z,17.00
2022-10-04T21:30:57.338Z,17.00
2022-10-04T21:33:24.182Z,17.00
2022-10-04T21:35:52.079Z,17.00
2022-10-04T21:38:19.514Z,17.00
2022-10-04T21:40:46.437Z,17.00
2022-10-04T21:43:13.356Z,17.10
2022-10-04T21:45:40.316Z,17.00
2022-10-04T21:48:07.245Z,17.00
2022-10-04T21:50:34.090Z,17.00
2022-10-04T21:53:01.113Z,17.00
2022-10-04T21:55:27.965Z,17.00
2022-10-04T21:57:54.911Z,17.00
2022-10-04T22:00:21.816Z,17.00
2022-10-04T22:02:49.021Z,17.00
2022-10-04T22:05:15.880Z,17.00
2022-10-04T22:07:43.450Z,17.00
2022-10-04T22:10:10.393Z,17.00
2022-10-04T22:12:37.297Z,17.00
2022-10-04T22:15:04.764Z,17.00
2022-10-04T22:17:31.603Z,17.00
2022-10-04T22:19:58.467Z,17.00
2022-10-04T22:22:25.399Z,17.00
2022-10-04T22:24:52.314Z,17.00
2022-10-04T22:27:20.319Z,16.90
2022-10-04T22:29:47.366Z,17.00
2022-10-04T22:32:25.140Z,16.90
2022-10-04T22:34:53.346Z,16.90
2022-10-04T22:37:22.617Z,16.90
2022-10-04T22:39:50.212Z,17.00
2022-10-04T22:42:17.134Z,16.90
2022-10-04T22:44:44.154Z,16.90
2022-10-04T22:47:15.203Z,16.90
2022-10-04T22:49:43.270Z,16.90
2022-10-04T22:52:13.118Z,16.80
2022-10-04T22:54:43.202Z,16.80
2022-10-04T22:57:11.096Z,16.90
2022-10-04T22:59:39.500Z,16.90
2022-10-04T23:02:29.339Z,16.80
2022-10-04T23:04:58.446Z,16.80
2022-10-04T23:07:26.189Z,16.80
2022-10-04T23:09:53.052Z,16.80
2022-10-04T23:12:19.981Z,16.80
2022-10-04T23:14:46.816Z,16.80
2022-10-04T23:17:16.530Z,16.90
2022-10-04T23:19:43.509Z,16.80
2022-10-04T23:22:17.311Z,16.80
2022-10-04T23:24:44.619Z,16.80
2022-10-04T23:27:16.180Z,16.90
2022-10-04T23:29:43.637Z,16.90
2022-10-04T23:32:14.905Z,16.90
2022-10-04T23:34:43.773Z,16.90
2022-10-04T23:37:17.698Z,16.90
2022-10-04T23:39:45.125Z,16.80
2022-10-04T23:42:29.084Z,16.90
2022-10-04T23:44:57.787Z,16.90
2022-10-04T23:47:27.590Z,16.90
2022-10-04T23:49:54.788Z,16.80
2022-10-04T23:52:22.892Z,16.80
2022-10-04T23:54:50.881Z,16.80
2022-10-04T23:57:28.788Z,16.80
2022-10-04T23:59:55.728Z,16.80
